Time;durP1;ratioP1;P1;durP2;ratioP2;P2;SDS_P1;SDS_P2;PMS_P1;PMS_P2;Temp;Humidity;BMP_temperature;BMP_pressure;BME280_temperature;BME280_humidity;BME280_pressure;Samples;Min_cycle;Max_cycle;Signal;HPM_P1;HPM_P2
2021/06/07 00:01:26;;;;;;;0.38;0.38;;;;;;;19.76;50.24;98511.70;128895;1095;115294;-81
2021/06/07 00:04:52;;;;;;;;;;;;;;;;;;;;;
2021/06/07 00:08:23;;;;;;;0.40;0.40;;;;;;;19.76;50.13;98508.97;128732;1096;115023;-82
2021/06/07 00:11:49;;;;;;;0.30;0.30;;;;;;;19.77;50.43;98517.98;129343;1095;114852;-81
2021/06/07 00:15:16;;;;;;;0.40;0.40;;;;;;;19.77;49.94;98507.83;129033;1096;114987;-81
2021/06/07 00:18:49;;;;;;;0.40;0.40;;;;;;;19.79;49.93;98508.23;129041;1095;115555;-82
2021/06/07 00:25:43;;;;;;;0.30;0.30;;;;;;;19.83;49.85;98521.95;128808;1096;114866;-82
2021/06/07 00:29:09;;;;;;;0.40;0.40;;;;;;;19.83;49.94;98516.50;129064;1096;115376;-81
2021/06/07 00:32:42;;;;;;;0.33;0.33;;;;;;;19.83;50.37;98517.28;129018;1096;115678;-82
2021/06/07 00:36:19;;;;;;;;;;;;;;;;;;;;;
2021/06/07 00:39:36;;;;;;;0.30;0.30;;;;;;;19.83;50.53;98521.95;129608;1096;23361;-82
2021/06/07 00:43:04;;;;;;;0.20;0.20;;;;;;;19.80;50.94;98515.27;129893;1096;22581;-81
2021/06/07 01:07:37;;;;;;;;;;;;;;;;;;;;;
2021/06/07 01:10:54;;;;;;;0.30;0.30;;;;;;;19.40;52.74;98515.77;128955;1096;114958;-82
2021/06/07 01:14:27;;;;;;;0.40;0.40;;;;;;;19.33;52.39;98519.16;129047;1096;115103;-82
2021/06/07 01:17:54;;;;;;;0.30;0.30;;;;;;;19.28;51.92;98507.76;129598;1096;22558;-81
2021/06/07 01:21:26;;;;;;;0.40;0.40;;;;;;;19.25;51.09;98505.75;129047;1096;115326;-82
2021/06/07 01:31:48;;;;;;;0.40;0.40;;;;;;;19.24;51.35;98512.37;129057;1096;114949;-82
2021/06/07 01:35:15;;;;;;;0.20;0.20;;;;;;;19.22;51.58;98515.47;129053;1095;115440;-81
2021/06/07 01:42:09;;;;;;;0.30;0.30;;;;;;;19.20;52.06;98512.30;129650;1096;22593;-81
2021/06/07 01:55:56;;;;;;;;;;;;;;;;;;;;;
2021/06/07 01:59:25;;;;;;;0.40;0.40;;;;;;;19.17;53.02;98512.23;129093;1096;115085;-80
2021/06/07 02:02:51;;;;;;;0.40;0.40;;;;;;;19.18;52.79;98511.89;129174;1095;114922;-80
2021/06/07 02:06:24;;;;;;;0.40;0.40;;;;;;;19.18;52.90;98511.08;129114;1095;114950;-81
2021/06/07 02:09:51;;;;;;;0.40;0.40;;;;;;;19.19;53.33;98509.95;129068;1096;115354;-81
2021/06/07 02:13:12;;;;;;;0.33;0.33;;;;;;;19.18;53.02;98502.89;129069;1096;114856;-81
2021/06/07 02:27:04;;;;;;;0.30;0.30;;;;;;;19.16;53.29;98514.19;129955;1096;22542;-80
2021/06/07 02:30:30;;;;;;;;;;;;;;;;;;;;;
2021/06/07 02:33:59;;;;;;;0.38;0.38;;;;;;;19.16;53.74;98511.45;129044;1096;115516;-82
2021/06/07 02:37:27;;;;;;;0.40;0.40;;;;;;;19.13;53.70;98502.04;129073;1095;114930;-82
2021/06/07 02:40:53;;;;;;;0.43;0.43;;;;;;;19.11;53.93;98498.11;129083;1096;114978;-83
2021/06/07 02:44:23;;;;;;;0.40;0.40;;;;;;;19.07;53.65;98502.72;129026;1096;115056;-82
2021/06/07 02:47:57;;;;;;;0.50;0.50;;;;;;;19.06;54.23;98498.39;128958;1096;114597;-82
2021/06/07 02:51:26;;;;;;;0.30;0.30;;;;;;;19.05;53.98;98511.25;128743;1099;115193;-80
2021/06/07 02:54:52;;;;;;;0.40;0.40;;;;;;;19.04;54.18;98506.16;129038;1100;115628;-81
2021/06/07 02:58:19;;;;;;;0.48;0.48;;;;;;;19.04;54.43;98512.41;128790;1099;115126;-82
2021/06/07 03:01:44;;;;;;;0.30;0.30;;;;;;;19.05;54.44;98513.98;129099;1096;115386;-82
2021/06/07 03:05:11;;;;;;;0.30;0.30;;;;;;;19.04;54.42;98514.35;129042;1096;115004;-81
2021/06/07 03:08:38;;;;;;;0.50;0.50;;;;;;;19.04;54.80;98523.33;129920;1095;22524;-81
2021/06/07 03:12:11;;;;;;;0.40;0.40;;;;;;;19.05;54.29;98521.38;129941;1096;23095;-81
2021/06/07 03:15:36;;;;;;;;;;;;;;;;;;;;;
2021/06/07 03:22:24;;;;;;;;;;;;;;;;;;;;;
2021/06/07 03:25:51;;;;;;;0.23;0.23;;;;;;;19.07;54.54;98530.80;128956;1096;115634;-80
2021/06/07 03:29:21;;;;;;;0.40;0.40;;;;;;;19.08;54.66;98535.09;129033;1096;115343;-80
2021/06/07 03:36:16;;;;;;;0.37;0.37;;;;;;;19.12;55.00;98526.98;129559;1096;113978;-81
2021/06/07 03:39:42;;;;;;;0.30;0.30;;;;;;;19.12;54.76;98524.25;128762;1096;236799;-82
2021/06/07 03:43:09;;;;;;;0.40;0.40;;;;;;;19.13;54.67;98526.60;128964;1095;115188;-81
2021/06/07 03:46:37;;;;;;;0.40;0.40;;;;;;;19.13;54.48;98518.41;129098;1096;115040;-81
2021/06/07 03:50:04;;;;;;;0.38;0.38;;;;;;;19.16;54.49;98516.13;129053;1096;115022;-81
2021/06/07 03:53:30;;;;;;;0.45;0.45;;;;;;;19.15;54.88;98515.34;129082;1095;114738;-81
2021/06/07 04:03:34;;;;;;;0.30;0.30;;;;;;;19.18;54.59;98516.53;128834;1096;115254;-82
2021/06/07 04:07:05;;;;;;;0.40;0.40;;;;;;;19.19;54.56;98518.14;129046;1096;115310;-81
2021/06/07 04:17:37;;;;;;;0.30;0.30;;;;;;;19.20;54.75;98515.03;129315;1096;22983;-81
2021/06/07 04:21:04;;;;;;;0.30;0.30;;;;;;;19.20;54.45;98512.30;129575;1096;23386;-81
2021/06/07 04:24:10;;;;;;;;;;;;;;;19.21;54.31;98508.41;128818;1095;115264;-81
2021/06/07 04:37:53;;;;;;;;;;;;;;;;;;;;;
2021/06/07 04:41:39;;;;;;;0.40;0.40;;;;;;;19.40;54.36;98532.16;129091;1096;114816;-82
2021/06/07 04:45:12;;;;;;;0.48;0.48;;;;;;;19.46;54.33;98535.39;129468;1095;22555;-81
2021/06/07 04:48:44;;;;;;;0.30;0.30;;;;;;;19.50;55.13;98530.77;129101;1096;115605;-82
2021/06/07 04:52:11;;;;;;;0.40;0.40;;;;;;;19.56;54.88;98542.95;128863;1095;115649;-81
2021/06/07 04:55:43;;;;;;;0.30;0.30;;;;;;;19.60;55.29;98538.34;129035;1096;115588;-81
2021/06/07 04:59:10;;;;;;;0.40;0.40;;;;;;;19.67;55.39;98537.70;128804;1096;115772;-81
2021/06/07 05:02:37;;;;;;;0.38;0.38;;;;;;;19.70;55.21;98542.45;129053;1096;115445;-82
2021/06/07 05:24:02;;;;;;;0.30;0.30;;;;;;;20.09;54.31;98543.84;129812;1096;22568;-83
2021/06/07 05:30:04;;;;;;;;;;;;;;;;;;;;;
2021/06/07 06:06:51;;;;;;;0.48;0.48;;;;;;;20.92;53.67;98555.89;128943;1096;115188;-82
2021/06/07 06:10:19;;;;;;;0.43;0.43;;;;;;;20.92;53.42;98556.68;128727;1096;115179;-82
2021/06/07 06:13:48;;;;;;;0.40;0.40;;;;;;;20.97;53.47;98566.50;129011;1096;115080;-83
2021/06/07 06:17:14;;;;;;;0.70;0.70;;;;;;;21.11;53.73;98572.16;128638;1096;115090;-83
2021/06/07 06:20:41;;;;;;;0.78;0.65;;;;;;;21.18;53.77;98576.90;129017;1096;115522;-82
2021/06/07 06:24:07;;;;;;;0.30;0.30;;;;;;;21.27;53.87;98578.19;129830;1096;22642;-83
2021/06/07 06:27:34;;;;;;;0.43;0.43;;;;;;;21.38;53.87;98577.53;129018;1096;115539;-82
2021/06/07 06:44:59;;;;;;;;;;;;;;;;;;;;;
2021/06/07 06:48:22;;;;;;;0.95;0.80;;;;;;;21.95;53.89;98583.53;128579;1096;115394;-83
2021/06/07 06:51:48;;;;;;;0.65;0.65;;;;;;;22.07;53.33;98583.23;128744;1097;114985;-82
2021/06/07 06:55:17;;;;;;;0.70;0.70;;;;;;;22.27;53.06;98586.53;129006;1096;115206;-82
2021/06/07 06:58:50;;;;;;;0.65;0.65;;;;;;;22.45;52.20;98581.95;128997;1097;115129;-82
2021/06/07 07:02:16;;;;;;;0.50;0.50;;;;;;;22.54;51.51;98587.09;128749;1095;114915;-82
2021/06/07 07:08:25;;;;;;;;;;;;;;;;;;;;;
2021/06/07 07:12:00;;;;;;;0.50;0.50;;;;;;;23.12;49.80;98599.94;129905;1098;22603;-82
2021/06/07 07:15:27;;;;;;;0.50;0.50;;;;;;;23.31;49.45;98603.53;128787;1100;115681;-82
2021/06/07 07:18:53;;;;;;;0.45;0.45;;;;;;;23.59;48.86;98592.59;129056;1100;115653;-82
2021/06/07 07:22:21;;;;;;;0.65;0.65;;;;;;;23.84;48.47;98602.84;128983;1100;114520;-82
2021/06/07 07:25:48;;;;;;;0.80;0.80;;;;;;;23.98;47.62;98606.39;129011;1099;115227;-82
2021/06/07 07:29:14;;;;;;;0.58;0.58;;;;;;;24.03;47.30;98588.70;128743;1100;114865;-83
2021/06/07 07:39:36;;;;;;;0.40;0.40;;;;;;;24.27;44.21;98600.86;129033;1097;115338;-82
2021/06/07 07:43:03;;;;;;;0.40;0.40;;;;;;;24.34;42.79;98606.36;128764;1099;115495;-83
2021/06/07 07:46:30;;;;;;;0.48;0.48;;;;;;;24.42;43.02;98609.92;128735;1100;114910;-83
2021/06/07 07:49:55;;;;;;;;;;;;;;;;;;;;;
2021/06/07 07:53:22;;;;;;;;;;;;;;;;;;;;;
2021/06/07 07:57:04;;;;;;;0.50;0.50;;;;;;;24.98;40.74;98608.96;129924;1096;22547;-80
2021/06/07 08:00:30;;;;;;;0.50;0.50;;;;;;;25.21;42.34;98600.23;128755;1096;114853;-82
2021/06/07 08:03:57;;;;;;;0.60;0.60;;;;;;;25.39;42.02;98602.13;128675;1096;115154;-83
2021/06/07 08:07:23;;;;;;;0.60;0.60;;;;;;;25.47;41.10;98606.41;129060;1096;115274;-84
2021/06/07 08:10:55;;;;;;;0.50;0.50;;;;;;;25.61;41.27;98603.53;129037;1096;115573;-82
2021/06/07 08:14:06;;;;;;;;;;;;;;;;;;;;;
2021/06/07 08:17:50;;;;;;;0.43;0.43;;;;;;;25.73;40.62;98610.55;128836;1096;114884;-84
2021/06/07 08:21:17;;;;;;;0.60;0.60;;;;;;;25.79;41.21;98603.45;128726;1096;115357;-83
2021/06/07 08:24:45;;;;;;;0.60;0.60;;;;;;;25.81;39.96;98609.33;128906;1096;115207;-83
2021/06/07 08:31:38;;;;;;;0.60;0.60;;;;;;;25.89;39.35;98613.60;127752;1098;115513;-83
2021/06/07 08:35:05;;;;;;;0.60;0.60;;;;;;;25.81;39.67;98614.07;127893;1096;114851;-82
2021/06/07 08:42:01;;;;;;;0.50;0.50;;;;;;;25.91;39.91;98613.22;129583;1096;22662;-83
2021/06/07 08:45:27;;;;;;;0.70;0.70;;;;;;;26.04;39.50;98607.98;128612;1096;114719;-82
2021/06/07 08:52:08;;;;;;;;;;;;;;;;;;;;;
2021/06/07 08:55:17;;;;;;;0.55;0.55;;;;;;;26.31;38.89;98606.16;129006;1096;115335;-81
2021/06/07 08:58:37;;;;;;;;;;;;;;;;;;;;;
2021/06/07 09:02:06;;;;;;;;;;;;;;;;;;;;;
2021/06/07 09:05:46;;;;;;;0.80;0.80;;;;;;;26.22;39.07;98607.84;128634;1096;115386;-83
2021/06/07 09:09:05;;;;;;;;;;;;;;;;;;;;;
2021/06/07 09:12:49;;;;;;;0.65;0.65;;;;;;;26.34;38.31;98604.56;129011;1096;114798;-84
2021/06/07 09:16:31;;;;;;;0.50;0.50;;;;;;;26.30;38.53;98604.59;128703;1096;115385;-83
2021/06/07 09:20:10;;;;;;;0.63;0.63;;;;;;;26.39;38.69;98613.17;128604;1097;115160;-83
2021/06/07 09:23:39;;;;;;;0.50;0.50;;;;;;;26.46;37.77;98604.08;128561;1097;114374;-83
2021/06/07 09:30:46;;;;;;;0.58;0.58;;;;;;;26.92;37.37;98602.78;129763;1096;22615;-82
2021/06/07 09:33:50;;;;;;;0.50;0.50;;;;;;;26.99;37.15;98605.44;128848;1096;115161;-82
2021/06/07 09:36:49;;;;;;;0.68;0.68;;;;;;;27.10;36.57;98606.12;129090;1096;114020;-84
2021/06/07 09:40:26;;;;;;;;;;;;;;;;;;;;;
2021/06/07 09:44:02;;;;;;;;;;;;;;;;;;;;;
2021/06/07 09:47:22;;;;;;;;;;;;;;;;;;;;;
2021/06/07 09:54:19;;;;;;;0.70;0.70;;;;;;;27.06;37.33;98610.88;128843;1097;115026;-82
2021/06/07 09:57:41;;;;;;;;;;;;;;;;;;;;;
2021/06/07 10:01:13;;;;;;;;;;;;;;;;;;;;;
2021/06/07 10:04:39;;;;;;;;;;;;;;;;;;;;;
2021/06/07 10:08:11;;;;;;;;;;;;;;;;;;;;;
2021/06/07 10:11:40;;;;;;;0.83;0.83;;;;;;;27.26;37.67;98599.20;128945;1095;114712;-80
2021/06/07 10:15:00;;;;;;;;;;;;;;;;;;;;;
2021/06/07 10:18:36;;;;;;;0.70;0.70;;;;;;;27.85;36.14;98588.47;129015;1095;114755;-81
2021/06/07 10:22:02;;;;;;;0.80;0.80;;;;;;;28.04;35.53;98584.20;129039;1094;115519;-81
2021/06/07 10:25:29;;;;;;;0.55;0.55;;;;;;;28.28;35.05;98578.66;129063;1096;115263;-80
2021/06/07 10:29:07;;;;;;;0.63;0.63;;;;;;;28.32;34.60;98580.15;129008;1095;114884;-82
2021/06/07 10:32:28;;;;;;;;;;;;;;;;;;;;;
2021/06/07 10:36:09;;;;;;;0.63;0.63;;;;;;;28.41;33.99;98574.08;129848;1096;22556;-79
2021/06/07 10:40:06;;;;;;;0.68;0.68;;;;;;;28.58;33.82;98572.97;129069;1095;115259;-81
2021/06/07 10:43:10;;;;;;;0.70;0.70;;;;;;;28.71;33.26;98572.33;128681;1095;115075;-81
2021/06/07 10:46:33;;;;;;;0.85;0.85;;;;;;;28.85;33.64;98570.06;129017;1095;115006;-82
2021/06/07 10:50:07;;;;;;;0.83;0.83;;;;;;;28.99;32.95;98566.23;128975;1096;115306;-83
2021/06/07 10:53:32;;;;;;;0.60;0.60;;;;;;;29.23;33.47;98563.34;128818;1096;114715;-82
2021/06/07 11:01:03;;;;;;;;;;;;;;;;;;;;;
2021/06/07 11:04:25;;;;;;;;;;;;;;;;;;;;;
2021/06/07 11:08:15;;;;;;;0.68;0.68;;;;;;;29.26;31.47;98549.39;128956;1095;115078;-82
2021/06/07 11:11:52;;;;;;;0.70;0.70;;;;;;;29.03;32.16;98547.52;128839;1096;115584;-83
2021/06/07 11:15:17;;;;;;;0.43;0.43;;;;;;;28.81;32.76;98546.41;129908;1096;22515;-83
2021/06/07 11:19:20;;;;;;;0.68;0.68;;;;;;;28.71;33.46;98556.48;129600;1096;23024;-83
2021/06/07 11:22:34;;;;;;;0.75;0.75;;;;;;;28.65;33.33;98560.17;128862;1095;115286;-83
2021/06/07 11:26:31;;;;;;;0.83;0.80;;;;;;;28.60;34.74;98558.69;128856;1096;114688;-82
2021/06/07 11:30:03;;;;;;;0.60;0.60;;;;;;;28.43;36.49;98568.91;128671;1100;22553;-81
2021/06/07 11:33:36;;;;;;;0.65;0.65;;;;;;;28.10;37.67;98565.92;127844;1097;115299;-83
2021/06/07 11:37:29;;;;;;;;;;;;;;;;;;;;;
2021/06/07 11:40:55;;;;;;;;;;;;;;;;;;;;;
2021/06/07 11:44:39;;;;;;;0.70;0.70;;;;;;;25.68;43.47;98562.13;128847;1100;114903;-83
2021/06/07 11:51:42;;;;;;;0.68;0.68;;;;;;;25.54;44.05;98550.41;128868;1096;114904;-83
2021/06/07 11:58:56;;;;;;;;;;;;;;;;;;;;;
2021/06/07 12:05:58;;;;;;;0.68;0.68;;;;;;;26.22;45.31;98533.31;129882;1095;22543;-83
2021/06/07 12:09:32;;;;;;;0.65;0.65;;;;;;;26.37;46.58;98532.75;128797;1097;115497;-82
2021/06/07 12:16:33;;;;;;;0.55;0.55;;;;;;;27.00;45.36;98526.88;128719;1096;115484;-82
2021/06/07 12:19:52;;;;;;;;;;;;;;;;;;;;;
2021/06/07 12:23:35;;;;;;;0.70;0.70;;;;;;;28.08;43.12;98529.56;128982;1095;115544;-81
2021/06/07 12:33:44;;;;;;;;;;;;;;;;;;;;;
2021/06/07 12:37:12;;;;;;;0.70;0.70;;;;;;;27.86;40.67;98517.30;129048;1096;115284;-80
2021/06/07 12:40:57;;;;;;;0.70;0.70;;;;;;;27.76;41.65;98512.74;129004;1096;115058;-81
2021/06/07 12:44:26;;;;;;;0.73;0.73;;;;;;;27.86;42.73;98509.80;129032;1095;115175;-82
2021/06/07 12:47:47;;;;;;;;;;;;;;;;;;;;;
2021/06/07 12:51:17;;;;;;;;;;;;;;;;;;;;;
2021/06/07 12:54:34;;;;;;;;;;;;;;;;;;;;;
2021/06/07 12:58:01;;;;;;;0.80;0.80;;;;;;;28.21;42.10;98506.78;128888;1096;115378;-81
2021/06/07 13:01:21;;;;;;;0.80;0.80;;;;;;;28.70;42.05;98509.81;129004;1096;113899;-82
2021/06/07 13:05:15;;;;;;;0.70;0.70;;;;;;;29.41;41.77;98504.70;129072;1097;114764;-82
2021/06/07 13:08:26;;;;;;;0.78;0.78;;;;;;;30.12;37.37;98511.23;128924;1095;114784;-82
2021/06/07 13:12:17;;;;;;;0.93;0.93;;;;;;;30.60;35.02;98515.09;129348;1095;115305;-80
2021/06/07 13:15:25;;;;;;;0.90;0.85;;;;;;;31.08;33.62;98510.52;128922;1096;114821;-79
2021/06/07 13:18:55;;;;;;;0.70;0.70;;;;;;;31.67;31.85;98502.71;128971;1095;114098;-81
2021/06/07 13:21:50;;;;;;;0.80;0.80;;;;;;;32.17;31.18;98498.25;129058;1096;115051;-80
2021/06/07 13:25:10;;;;;;;;;;;;;;;;;;;;;
2021/06/07 13:28:40;;;;;;;0.80;0.80;;;;;;;32.33;29.51;98495.27;129060;1097;115383;-80
2021/06/07 13:31:58;;;;;;;;;;;;;;;;;;;;;
2021/06/07 13:35:38;;;;;;;0.90;0.90;;;;;;;33.18;28.17;98480.14;128656;1095;115188;-79
2021/06/07 13:39:07;;;;;;;;;;;;;;;;;;;;;
2021/06/07 13:42:43;;;;;;;0.68;0.68;;;;;;;33.96;27.18;98467.75;128546;1097;114586;-81
2021/06/07 13:46:01;;;;;;;0.80;0.80;;;;;;;34.29;26.66;98460.77;128955;1095;114726;-82
2021/06/07 13:49:08;;;;;;;;;;;;;;;;;;;;;
2021/06/07 13:52:26;;;;;;;;;;;;;;;;;;;;;
2021/06/07 13:55:52;;;;;;;0.85;0.85;;;;;;;34.84;24.49;98457.86;128851;1095;115271;-81
2021/06/07 13:59:23;;;;;;;0.70;0.70;;;;;;;34.12;24.42;98449.15;128689;1095;115065;-81
2021/06/07 14:02:32;;;;;;;0.80;0.80;;;;;;;34.32;24.77;98457.05;129898;1095;22970;-81
2021/06/07 14:05:28;;;;;;;;;;;;;;;;;;;;;
2021/06/07 14:08:09;;;;;;;0.80;0.80;;;;;;;34.55;24.10;98447.24;129966;1095;22500;-82
2021/06/07 14:11:56;;;;;;;1.00;1.00;;;;;;;34.58;24.67;98443.48;129888;1096;22636;-80
2021/06/07 14:15:16;;;;;;;0.80;0.80;;;;;;;34.84;24.13;98444.64;129058;1096;115386;-81
2021/06/07 14:18:25;;;;;;;;;;;;;;;;;;;;;
2021/06/07 14:21:54;;;;;;;0.80;0.80;;;;;;;35.30;22.71;98438.09;129025;1095;115909;-82
2021/06/07 14:25:12;;;;;;;0.80;0.80;;;;;;;35.67;22.97;98438.63;129067;1095;116139;-81
2021/06/07 14:28:38;;;;;;;0.70;0.70;;;;;;;36.09;22.97;98437.70;129002;1096;114867;-81
2021/06/07 14:31:53;;;;;;;;;;;;;;;;;;;;;
2021/06/07 14:35:14;;;;;;;;;;;;;;;;;;;;;
2021/06/07 14:38:42;;;;;;;0.90;0.90;;;;;;;35.79;21.97;98422.81;128984;1097;114884;-81
2021/06/07 14:41:59;;;;;;;0.73;0.73;;;;;;;35.82;22.42;98419.06;129881;1096;22614;-80
2021/06/07 14:45:08;;;;;;;;;;;;;;;;;;;;;
2021/06/07 14:48:34;;;;;;;;;;;;;;;;;;;;;
2021/06/07 14:52:01;;;;;;;;;;;;;;;;;;;;;
2021/06/07 14:55:35;;;;;;;0.80;0.80;;;;;;;36.62;21.21;98417.98;129061;1096;115435;-82
2021/06/07 14:58:52;;;;;;;0.75;0.75;;;;;;;36.58;21.11;98416.64;128994;1096;115146;-81
2021/06/07 15:02:18;;;;;;;0.90;0.90;;;;;;;35.84;21.28;98411.73;129103;1095;114877;-81
2021/06/07 15:05:45;;;;;;;0.75;0.75;;;;;;;35.23;22.26;98416.81;129935;1096;22562;-81
2021/06/07 15:09:03;;;;;;;;;;;;;;;;;;;;;
2021/06/07 15:12:20;;;;;;;;;;;;;;;;;;;;;
2021/06/07 15:15:49;;;;;;;0.55;0.55;;;;;;;33.27;25.64;98414.43;129073;1097;115264;-82
2021/06/07 15:19:08;;;;;;;;;;;;;;;;;;;;;
2021/06/07 15:25:59;;;;;;;;;;;;;;;;;;;;;
2021/06/07 15:29:37;;;;;;;0.75;0.75;;;;;;;31.06;27.54;98435.11;129028;1096;114782;-82
2021/06/07 15:33:04;;;;;;;0.53;0.53;;;;;;;30.59;28.01;98432.17;129831;1096;23052;-82
2021/06/07 15:38:45;;;;;;;0.60;0.60;;;;;;;29.60;29.69;98428.94;128101;1096;115676;-82
2021/06/07 15:42:13;;;;;;;0.60;0.60;;;;;;;29.26;30.37;98429.36;129314;1096;115236;-79
2021/06/07 15:45:40;;;;;;;0.70;0.70;;;;;;;28.61;31.37;98422.52;128955;1096;115420;-81
2021/06/07 15:52:32;;;;;;;0.68;0.68;;;;;;;27.69;32.56;98408.47;129116;1095;114836;-79
2021/06/07 15:55:59;;;;;;;0.70;0.70;;;;;;;27.36;33.38;98404.73;129025;1096;115319;-79
2021/06/07 16:06:21;;;;;;;0.60;0.60;;;;;;;26.59;35.23;98405.48;128810;1097;114942;-81
2021/06/07 16:09:49;;;;;;;0.50;0.50;;;;;;;26.43;35.66;98400.53;129073;1095;115505;-80
2021/06/07 16:23:42;;;;;;;0.60;0.60;;;;;;;25.82;35.74;98419.78;128859;1096;115062;-81
2021/06/07 16:27:09;;;;;;;0.63;0.63;;;;;;;25.69;35.36;98413.97;129969;1096;22546;-81
2021/06/07 16:30:36;;;;;;;0.73;0.73;;;;;;;25.59;35.39;98423.93;129071;1096;115054;-81
2021/06/07 16:34:03;;;;;;;0.50;0.50;;;;;;;25.45;35.71;98437.84;129071;1095;115152;-81
2021/06/07 16:37:30;;;;;;;0.45;0.45;;;;;;;25.31;36.13;98430.48;129115;1096;115556;-81
2021/06/07 16:41:23;;;;;;;0.50;0.50;;;;;;;25.20;36.07;98424.27;128874;1095;115426;-80
2021/06/07 16:44:25;;;;;;;;;;;;;;;;;;;;;
2021/06/07 16:54:56;;;;;;;0.50;0.50;;;;;;;25.06;38.42;98422.36;129115;1096;115657;-81
2021/06/07 17:01:49;;;;;;;0.95;0.70;;;;;;;25.03;39.92;98428.67;128844;1096;115531;-81
2021/06/07 17:05:18;;;;;;;0.63;0.63;;;;;;;25.01;40.18;98427.53;128847;1096;115799;-80
2021/06/07 17:12:14;;;;;;;0.43;0.43;;;;;;;24.91;40.81;98421.67;129842;1095;22583;-82
2021/06/07 17:15:51;;;;;;;0.50;0.50;;;;;;;24.88;41.25;98425.26;129016;1095;114981;-81
2021/06/07 17:19:12;;;;;;;0.40;0.40;;;;;;;24.81;41.62;98417.03;128892;1095;114994;-81
2021/06/07 17:22:39;;;;;;;0.33;0.33;;;;;;;24.71;41.91;98421.41;129016;1096;115010;-82
2021/06/07 17:26:07;;;;;;;0.50;0.50;;;;;;;24.61;42.37;98414.02;129018;1096;114823;-83
2021/06/07 17:29:32;;;;;;;0.50;0.50;;;;;;;24.48;43.16;98410.13;128996;1096;115069;-82
2021/06/07 17:32:51;;;;;;;0.50;0.50;;;;;;;24.36;43.60;98408.59;129780;1096;22582;-83
2021/06/07 17:36:19;;;;;;;0.43;0.43;;;;;;;24.22;43.53;98403.95;129090;1095;115068;-83
2021/06/07 17:39:45;;;;;;;0.40;0.40;;;;;;;24.09;43.38;98396.52;128961;1095;115377;-83
2021/06/07 17:43:12;;;;;;;0.40;0.40;;;;;;;23.99;43.99;98401.67;128989;1096;115170;-82
2021/06/07 17:46:38;;;;;;;;;;;;;;;;;;;;;
2021/06/07 17:50:09;;;;;;;0.75;0.58;;;;;;;23.81;44.32;98400.14;128977;1096;116000;-82
2021/06/07 17:53:34;;;;;;;0.50;0.50;;;;;;;23.70;44.48;98389.98;129060;1096;114968;-82
2021/06/07 17:57:11;;;;;;;;;;;;;;;;;;;;;
2021/06/07 18:04:00;;;;;;;0.40;0.40;;;;;;;23.41;44.94;98407.65;128995;1095;115717;-82
2021/06/07 18:10:52;;;;;;;0.40;0.40;;;;;;;23.16;44.91;98408.45;129067;1096;115411;-81
2021/06/07 18:24:48;;;;;;;0.33;0.33;;;;;;;22.68;45.57;98418.96;129046;1096;115490;-82
2021/06/07 18:28:16;;;;;;;0.30;0.30;;;;;;;22.49;45.46;98406.36;128784;1096;115302;-83
2021/06/07 18:31:45;;;;;;;0.30;0.30;;;;;;;22.34;45.77;98411.01;128963;1095;115608;-84
2021/06/07 18:35:12;;;;;;;0.40;0.40;;;;;;;22.20;45.60;98410.94;129062;1096;115230;-82
2021/06/07 18:38:38;;;;;;;0.28;0.28;;;;;;;22.07;45.74;98424.19;129470;1096;114868;-82
2021/06/07 18:42:05;;;;;;;0.40;0.40;;;;;;;21.90;45.49;98416.66;129925;1095;22571;-82
2021/06/07 18:45:31;;;;;;;0.30;0.30;;;;;;;21.74;45.51;98416.97;129039;1096;115266;-83
2021/06/07 18:49:06;;;;;;;0.38;0.38;;;;;;;21.58;45.65;98422.73;129051;1096;115311;-82
2021/06/07 18:52:32;;;;;;;0.53;0.53;;;;;;;21.43;45.77;98419.10;128718;1097;115184;-82
2021/06/07 18:56:05;;;;;;;0.30;0.30;;;;;;;21.30;45.99;98426.03;129084;1095;115148;-82
2021/06/07 18:59:32;;;;;;;0.30;0.30;;;;;;;21.17;46.36;98428.24;128712;1096;115018;-81
2021/06/07 19:13:20;;;;;;;0.38;0.38;;;;;;;20.75;47.39;98432.17;129095;1096;115108;-82
2021/06/07 19:16:47;;;;;;;0.30;0.30;;;;;;;20.68;47.49;98443.03;129047;1096;115815;-82
2021/06/07 19:23:36;;;;;;;0.40;0.40;;;;;;;20.53;48.05;98453.03;129054;1096;114960;-82
2021/06/07 19:27:03;;;;;;;0.43;0.43;;;;;;;20.46;48.35;98454.86;129859;1095;22599;-83
2021/06/07 19:30:29;;;;;;;0.40;0.40;;;;;;;20.38;48.42;98451.25;128981;1096;114779;-82
2021/06/07 19:33:57;;;;;;;0.63;0.60;;;;;;;20.31;48.78;98456.63;129053;1096;115350;-82
2021/06/07 19:37:24;;;;;;;0.40;0.40;;;;;;;20.22;48.53;98454.18;129013;1095;115353;-82
2021/06/07 19:40:50;;;;;;;0.40;0.40;;;;;;;20.16;48.67;98455.68;129022;1096;115702;-83
2021/06/07 19:51:24;;;;;;;0.40;0.40;;;;;;;19.97;49.24;98458.55;129040;1096;115238;-81
2021/06/07 19:55:17;;;;;;;0.30;0.30;;;;;;;19.90;49.32;98464.69;129061;1095;115683;-80
2021/06/07 19:58:18;;;;;;;0.20;0.20;;;;;;;19.85;49.25;98473.20;129044;1097;115484;-80
2021/06/07 20:01:45;;;;;;;0.33;0.33;;;;;;;19.79;49.63;98472.72;129039;1096;115620;-81
2021/06/07 20:05:12;;;;;;;0.30;0.30;;;;;;;19.73;50.23;98473.39;128999;1096;115784;-81
2021/06/07 20:09:03;;;;;;;0.40;0.40;;;;;;;19.66;50.12;98471.36;129879;1095;22534;-80
2021/06/07 20:12:05;;;;;;;0.30;0.30;;;;;;;19.57;50.29;98468.86;129706;1096;22604;-81
2021/06/07 20:15:34;;;;;;;0.40;0.40;;;;;;;19.52;50.44;98476.56;128974;1096;115751;-82
2021/06/07 20:19:01;;;;;;;0.40;0.40;;;;;;;19.44;50.84;98480.33;128994;1096;115032;-84
2021/06/07 20:22:27;;;;;;;0.50;0.50;;;;;;;19.38;50.76;98480.65;129021;1095;115479;-83
2021/06/07 20:26:07;;;;;;;0.20;0.20;;;;;;;19.32;50.83;98482.09;128949;1096;114946;-83
2021/06/07 20:29:34;;;;;;;0.35;0.35;;;;;;;19.25;51.04;98479.23;128544;1096;115441;-82
2021/06/07 20:36:35;;;;;;;0.40;0.40;;;;;;;19.17;50.80;98484.94;129054;1096;114391;-82
2021/06/07 20:43:26;;;;;;;;;;;;;;;;;;;;;
2021/06/07 20:46:53;;;;;;;0.20;0.20;;;;;;;19.08;51.19;98491.42;128740;1096;115761;-82
2021/06/07 20:50:21;;;;;;;0.35;0.35;;;;;;;19.04;51.23;98485.12;129046;1095;114986;-80
2021/06/07 21:00:43;;;;;;;0.30;0.30;;;;;;;18.85;52.38;98477.75;129101;1097;115218;-80
2021/06/07 21:04:11;;;;;;;0.30;0.30;;;;;;;18.77;52.51;98480.71;129054;1095;115769;-81
2021/06/07 21:07:36;;;;;;;0.40;0.40;;;;;;;18.69;52.44;98493.39;128827;1095;115607;-82
2021/06/07 21:11:09;;;;;;;0.30;0.30;;;;;;;18.62;52.78;98485.06;129053;1097;115270;-82
2021/06/07 21:14:36;;;;;;;0.20;0.20;;;;;;;18.57;52.41;98488.09;128863;1096;114360;-82
2021/06/07 21:18:03;;;;;;;0.40;0.40;;;;;;;18.53;52.76;98489.95;129876;1097;22574;-81
2021/06/07 21:21:29;;;;;;;0.45;0.30;;;;;;;18.49;52.96;98495.33;128830;1095;115457;-82
2021/06/07 21:24:56;;;;;;;0.30;0.30;;;;;;;18.45;52.81;98491.75;129071;1095;115508;-82
2021/06/07 21:35:19;;;;;;;0.30;0.30;;;;;;;18.31;52.83;98486.80;129119;1095;115591;-80
2021/06/07 21:38:46;;;;;;;0.53;0.43;;;;;;;18.28;52.90;98489.45;129832;1096;113707;-80
2021/06/07 21:42:13;;;;;;;0.70;0.50;;;;;;;18.27;52.95;98483.19;129966;1094;22551;-80
2021/06/07 21:45:40;;;;;;;0.38;0.38;;;;;;;18.24;52.99;98489.38;129080;1096;115236;-80
2021/06/07 21:49:07;;;;;;;0.40;0.40;;;;;;;18.22;52.52;98482.69;129061;1095;115167;-81
2021/06/07 21:52:38;;;;;;;0.40;0.40;;;;;;;18.20;52.58;98482.27;128860;1095;116275;-82
2021/06/07 21:56:06;;;;;;;0.25;0.25;;;;;;;18.17;52.64;98486.48;128753;1096;115681;-81
2021/06/07 21:59:34;;;;;;;0.40;0.40;;;;;;;18.14;52.69;98479.02;129092;1096;115077;-81
2021/06/07 22:03:00;;;;;;;0.23;0.23;;;;;;;18.12;52.60;98481.33;129947;1096;22569;-81
2021/06/07 22:06:27;;;;;;;0.30;0.30;;;;;;;18.09;52.83;98479.31;129118;1096;114840;-80
2021/06/07 22:09:53;;;;;;;0.33;0.33;;;;;;;18.06;52.69;98480.80;129064;1096;115715;-82
2021/06/07 22:13:20;;;;;;;0.30;0.30;;;;;;;18.03;52.60;98484.23;129012;1094;115563;-79
2021/06/07 22:16:47;;;;;;;0.30;0.30;;;;;;;18.00;52.70;98482.23;128834;1096;115051;-79
2021/06/07 22:20:07;;;;;;;0.23;0.23;;;;;;;17.99;52.72;98486.09;129113;1095;115468;-81
2021/06/07 22:23:33;;;;;;;0.30;0.30;;;;;;;17.96;52.32;98489.55;129118;1097;114942;-81
2021/06/07 22:27:01;;;;;;;0.30;0.30;;;;;;;17.94;52.63;98482.86;129946;1097;22574;-80
2021/06/07 22:33:55;;;;;;;0.30;0.30;;;;;;;17.89;52.64;98475.76;128823;1097;115223;-81
2021/06/07 22:37:22;;;;;;;0.30;0.30;;;;;;;17.87;52.53;98478.81;129104;1094;115516;-81
2021/06/07 22:40:48;;;;;;;0.20;0.20;;;;;;;17.85;52.47;98483.06;128830;1096;115171;-82
2021/06/07 22:54:43;;;;;;;0.30;0.30;;;;;;;17.79;53.27;98477.08;128711;1095;115780;-79